Hovedside
METAR-TAF:

METAR-TAF

Lufthavner :

Bodø, Norge

Bodø lufthavn

breddegrad: 67-16N, lengdegrad: 014-22E, høyde over havet: 1 m

Gjeldene værobservasjon

Denne rapporten ble laget for 42 minutter siden, klokken 08:50 UTC
Vind 22 kt fra Øst
Temperatur -3°C
Luftfuktighet 63%
Trykk 992 hPa
Sikt 10 km eller mer
Få skyer i en høyde av 4000 ft

METAR: ENBO 270850Z 09022KT 9999 FEW040 M03/M09 Q0992 NOSIG

Tid: 10:32 (09:32 UTC)

Varsel

Varsel gyldig fra 27. klokken 06 UTC til 28. klokken 06 UTC
Vind 20 kt fra Øst
Sikt 10 km eller mer
ingen skyer under 1500 m og ingen bygeskyer
Midlertidig
fra 27. klokken 12 UTC til 27. klokken 21 UTC
Vind 8 kt fra Øst
Sannsynlighet 40% :
Midlertidig
fra 27. klokken 18 UTC til 28. klokken 03 UTC
Sikt: 2000 m
i en høyde av 1000 ft
lett snø

TAF: ENBO 2706/2806 09020KT CAVOK TEMPO 2712/2721 10008KT PROB40 TEMPO 2718/2803 2000 -SN VV010

Værobservasjoner og værvarsel for over 4000 flyplasser (METAR- og TAF-rapporter).

Tilgjengelige stasjoner er representert av de røde og gule prikkene på kartet.

Hold musepekeren over prikken for å se navnet på stasjonen.

Klikk så for å se værobservasjoner og -varsler.

For å forandre kartet kan du klikke på den grønne knappen med svart kryss for å zoome inn, på den grønne knappen med strek for å zoome ut, eller på de grønne pilene for å se tilstøtende kart.


METAR-TAF: